sensor_id;sensor_type;location;lat;lon;timestamp;P1;durP1;ratioP1;P2;durP2;ratioP2
80253;SDS011;69563;37.974;23.708;2023-06-01T00:00:01;19.55;;;13.27;;
80253;SDS011;69563;37.974;23.708;2023-06-01T00:02:27;17.42;;;13.48;;
80253;SDS011;69563;37.974;23.708;2023-06-01T00:04:53;20.48;;;13.93;;
80253;SDS011;69563;37.974;23.708;2023-06-01T00:07:18;17.38;;;14.00;;
80253;SDS011;69563;37.974;23.708;2023-06-01T00:09:47;16.38;;;13.60;;
80253;SDS011;69563;37.974;23.708;2023-06-01T00:12:13;18.38;;;13.80;;
80253;SDS011;69563;37.974;23.708;2023-06-01T00:14:38;15.57;;;12.68;;
80253;SDS011;69563;37.974;23.708;2023-06-01T00:17:04;17.05;;;15.15;;
80253;SDS011;69563;37.974;23.708;2023-06-01T00:19:32;16.58;;;13.70;;
80253;SDS011;69563;37.974;23.708;2023-06-01T00:22:00;19.05;;;13.48;;
80253;SDS011;69563;37.974;23.708;2023-06-01T00:24:25;17.77;;;13.85;;
80253;SDS011;69563;37.974;23.708;2023-06-01T00:26:51;15.68;;;13.02;;
80253;SDS011;69563;37.974;23.708;2023-06-01T00:29:17;19.60;;;13.05;;
80253;SDS011;69563;37.974;23.708;2023-06-01T00:31:42;15.55;;;12.73;;
80253;SDS011;69563;37.974;23.708;2023-06-01T00:34:09;16.55;;;12.95;;
80253;SDS011;69563;37.974;23.708;2023-06-01T00:36:35;15.85;;;13.38;;
80253;SDS011;69563;37.974;23.708;2023-06-01T00:39:01;17.00;;;13.52;;
80253;SDS011;69563;37.974;23.708;2023-06-01T00:41:27;21.98;;;13.02;;
80253;SDS011;69563;37.974;23.708;2023-06-01T00:43:54;17.00;;;12.07;;
80253;SDS011;69563;37.974;23.708;2023-06-01T00:46:19;15.90;;;12.40;;
80253;SDS011;69563;37.974;23.708;2023-06-01T00:48:46;15.07;;;12.10;;
80253;SDS011;69563;37.974;23.708;2023-06-01T00:51:11;16.95;;;12.60;;
80253;SDS011;69563;37.974;23.708;2023-06-01T00:53:40;15.23;;;13.02;;
80253;SDS011;69563;37.974;23.708;2023-06-01T00:56:07;13.38;;;11.98;;
80253;SDS011;69563;37.974;23.708;2023-06-01T00:58:33;16.10;;;12.43;;
80253;SDS011;69563;37.974;23.708;2023-06-01T01:00:59;16.83;;;12.63;;
80253;SDS011;69563;37.974;23.708;2023-06-01T01:03:26;13.93;;;11.88;;
80253;SDS011;69563;37.974;23.708;2023-06-01T01:06:00;17.42;;;11.48;;
80253;SDS011;69563;37.974;23.708;2023-06-01T01:11:32;15.95;;;12.75;;
80253;SDS011;69563;37.974;23.708;2023-06-01T01:14:05;16.20;;;11.73;;
80253;SDS011;69563;37.974;23.708;2023-06-01T01:16:44;15.35;;;13.05;;
80253;SDS011;69563;37.974;23.708;2023-06-01T01:30:21;16.08;;;12.98;;
80253;SDS011;69563;37.974;23.708;2023-06-01T01:32:49;19.98;;;14.40;;
80253;SDS011;69563;37.974;23.708;2023-06-01T01:35:16;17.10;;;13.43;;
80253;SDS011;69563;37.974;23.708;2023-06-01T01:37:49;15.30;;;12.30;;
80253;SDS011;69563;37.974;23.708;2023-06-01T01:40:16;17.85;;;12.95;;
80253;SDS011;69563;37.974;23.708;2023-06-01T01:42:42;16.85;;;13.60;;
80253;SDS011;69563;37.974;23.708;2023-06-01T01:45:08;16.52;;;13.43;;
80253;SDS011;69563;37.974;23.708;2023-06-01T01:47:35;16.98;;;13.73;;
80253;SDS011;69563;37.974;23.708;2023-06-01T01:50:09;18.92;;;13.13;;
80253;SDS011;69563;37.974;23.708;2023-06-01T01:52:37;22.05;;;14.10;;
80253;SDS011;69563;37.974;23.708;2023-06-01T01:55:05;16.77;;;13.52;;
80253;SDS011;69563;37.974;23.708;2023-06-01T01:57:33;19.23;;;12.88;;
80253;SDS011;69563;37.974;23.708;2023-06-01T02:00:00;15.88;;;13.18;;
80253;SDS011;69563;37.974;23.708;2023-06-01T02:02:27;19.27;;;14.38;;
80253;SDS011;69563;37.974;23.708;2023-06-01T02:04:53;15.43;;;12.57;;
80253;SDS011;69563;37.974;23.708;2023-06-01T02:07:19;18.77;;;12.95;;
80253;SDS011;69563;37.974;23.708;2023-06-01T02:09:45;17.60;;;13.32;;
80253;SDS011;69563;37.974;23.708;2023-06-01T02:12:11;14.52;;;12.90;;
80253;SDS011;69563;37.974;23.708;2023-06-01T02:14:37;17.90;;;13.27;;
80253;SDS011;69563;37.974;23.708;2023-06-01T02:17:02;15.40;;;12.43;;
80253;SDS011;69563;37.974;23.708;2023-06-01T02:19:28;16.67;;;12.63;;
80253;SDS011;69563;37.974;23.708;2023-06-01T02:21:55;15.38;;;11.45;;
80253;SDS011;69563;37.974;23.708;2023-06-01T02:24:20;16.67;;;12.57;;
80253;SDS011;69563;37.974;23.708;2023-06-01T02:26:46;17.38;;;12.65;;
80253;SDS011;69563;37.974;23.708;2023-06-01T02:29:19;19.45;;;13.00;;
80253;SDS011;69563;37.974;23.708;2023-06-01T02:31:47;16.60;;;12.90;;
80253;SDS011;69563;37.974;23.708;2023-06-01T02:34:15;18.20;;;12.88;;
80253;SDS011;69563;37.974;23.708;2023-06-01T02:36:41;15.15;;;11.50;;
80253;SDS011;69563;37.974;23.708;2023-06-01T02:39:07;18.70;;;12.05;;
80253;SDS011;69563;37.974;23.708;2023-06-01T02:41:33;16.10;;;12.07;;
80253;SDS011;69563;37.974;23.708;2023-06-01T02:43:59;20.83;;;12.80;;
80253;SDS011;69563;37.974;23.708;2023-06-01T02:46:25;14.07;;;11.35;;
80253;SDS011;69563;37.974;23.708;2023-06-01T02:48:51;15.18;;;12.10;;
80253;SDS011;69563;37.974;23.708;2023-06-01T02:51:18;16.55;;;12.15;;
80253;SDS011;69563;37.974;23.708;2023-06-01T02:53:44;18.65;;;12.75;;
80253;SDS011;69563;37.974;23.708;2023-06-01T02:56:11;14.48;;;12.18;;
80253;SDS011;69563;37.974;23.708;2023-06-01T02:58:38;16.25;;;13.02;;
80253;SDS011;69563;37.974;23.708;2023-06-01T03:01:03;15.15;;;11.85;;
80253;SDS011;69563;37.974;23.708;2023-06-01T03:03:29;15.98;;;11.52;;
80253;SDS011;69563;37.974;23.708;2023-06-01T03:05:55;13.77;;;11.75;;
80253;SDS011;69563;37.974;23.708;2023-06-01T03:08:22;16.75;;;11.75;;
80253;SDS011;69563;37.974;23.708;2023-06-01T03:10:51;16.13;;;12.38;;
80253;SDS011;69563;37.974;23.708;2023-06-01T03:13:17;16.83;;;12.25;;
80253;SDS011;69563;37.974;23.708;2023-06-01T03:15:43;18.23;;;13.13;;
80253;SDS011;69563;37.974;23.708;2023-06-01T03:18:09;18.02;;;13.02;;
80253;SDS011;69563;37.974;23.708;2023-06-01T03:20:35;15.35;;;11.50;;
80253;SDS011;69563;37.974;23.708;2023-06-01T03:23:01;15.63;;;11.82;;
80253;SDS011;69563;37.974;23.708;2023-06-01T03:25:27;16.40;;;12.38;;
80253;SDS011;69563;37.974;23.708;2023-06-01T03:27:53;19.65;;;11.35;;
80253;SDS011;69563;37.974;23.708;2023-06-01T03:30:18;16.58;;;12.25;;
80253;SDS011;69563;37.974;23.708;2023-06-01T03:32:44;16.77;;;12.57;;
80253;SDS011;69563;37.974;23.708;2023-06-01T03:35:11;16.85;;;11.60;;
80253;SDS011;69563;37.974;23.708;2023-06-01T03:37:38;19.10;;;12.85;;
80253;SDS011;69563;37.974;23.708;2023-06-01T03:40:05;19.45;;;12.40;;
80253;SDS011;69563;37.974;23.708;2023-06-01T03:42:38;20.08;;;12.32;;
80253;SDS011;69563;37.974;23.708;2023-06-01T03:45:08;15.30;;;11.48;;
80253;SDS011;69563;37.974;23.708;2023-06-01T03:47:35;17.17;;;11.43;;
80253;SDS011;69563;37.974;23.708;2023-06-01T03:50:02;14.82;;;11.93;;
80253;SDS011;69563;37.974;23.708;2023-06-01T03:52:31;16.13;;;11.15;;
80253;SDS011;69563;37.974;23.708;2023-06-01T03:54:57;23.45;;;12.50;;
80253;SDS011;69563;37.974;23.708;2023-06-01T03:57:26;19.08;;;11.70;;
80253;SDS011;69563;37.974;23.708;2023-06-01T03:59:51;17.50;;;11.32;;
80253;SDS011;69563;37.974;23.708;2023-06-01T04:02:17;18.08;;;12.50;;
80253;SDS011;69563;37.974;23.708;2023-06-01T04:04:44;16.98;;;12.88;;
80253;SDS011;69563;37.974;23.708;2023-06-01T04:07:11;17.67;;;12.05;;
80253;SDS011;69563;37.974;23.708;2023-06-01T04:09:42;19.52;;;12.68;;
80253;SDS011;69563;37.974;23.708;2023-06-01T04:12:09;18.23;;;12.20;;
80253;SDS011;69563;37.974;23.708;2023-06-01T04:14:38;22.08;;;13.68;;
80253;SDS011;69563;37.974;23.708;2023-06-01T04:17:04;64.60;;;13.60;;
80253;SDS011;69563;37.974;23.708;2023-06-01T04:19:38;22.00;;;11.20;;
80253;SDS011;69563;37.974;23.708;2023-06-01T04:22:04;24.15;;;13.00;;
80253;SDS011;69563;37.974;23.708;2023-06-01T04:24:30;28.05;;;11.23;;
80253;SDS011;69563;37.974;23.708;2023-06-01T04:26:56;25.55;;;11.82;;
80253;SDS011;69563;37.974;23.708;2023-06-01T04:29:24;19.58;;;12.45;;
80253;SDS011;69563;37.974;23.708;2023-06-01T04:31:49;19.05;;;11.05;;
80253;SDS011;69563;37.974;23.708;2023-06-01T04:34:16;18.45;;;12.10;;
80253;SDS011;69563;37.974;23.708;2023-06-01T04:36:42;18.75;;;11.00;;
80253;SDS011;69563;37.974;23.708;2023-06-01T04:39:09;18.33;;;10.73;;
80253;SDS011;69563;37.974;23.708;2023-06-01T04:41:35;17.88;;;10.30;;
80253;SDS011;69563;37.974;23.708;2023-06-01T04:44:01;19.85;;;10.88;;
80253;SDS011;69563;37.974;23.708;2023-06-01T04:46:31;23.35;;;11.73;;
80253;SDS011;69563;37.974;23.708;2023-06-01T04:48:57;21.33;;;11.98;;
80253;SDS011;69563;37.974;23.708;2023-06-01T04:51:25;17.80;;;10.95;;
80253;SDS011;69563;37.974;23.708;2023-06-01T04:53:52;17.52;;;10.25;;
80253;SDS011;69563;37.974;23.708;2023-06-01T04:56:22;16.98;;;11.35;;
80253;SDS011;69563;37.974;23.708;2023-06-01T04:58:55;19.83;;;10.70;;
80253;SDS011;69563;37.974;23.708;2023-06-01T05:01:25;18.42;;;10.20;;
80253;SDS011;69563;37.974;23.708;2023-06-01T05:03:54;14.88;;;9.73;;
80253;SDS011;69563;37.974;23.708;2023-06-01T05:06:20;22.63;;;10.85;;
80253;SDS011;69563;37.974;23.708;2023-06-01T05:08:47;15.32;;;9.38;;
80253;SDS011;69563;37.974;23.708;2023-06-01T05:11:15;14.65;;;9.50;;
80253;SDS011;69563;37.974;23.708;2023-06-01T05:13:41;16.15;;;9.27;;
80253;SDS011;69563;37.974;23.708;2023-06-01T05:16:08;12.93;;;8.55;;
80253;SDS011;69563;37.974;23.708;2023-06-01T05:18:34;15.43;;;9.07;;
80253;SDS011;69563;37.974;23.708;2023-06-01T05:21:01;13.05;;;8.00;;
80253;SDS011;69563;37.974;23.708;2023-06-01T05:23:27;13.68;;;8.23;;
80253;SDS011;69563;37.974;23.708;2023-06-01T05:25:54;14.13;;;8.00;;
80253;SDS011;69563;37.974;23.708;2023-06-01T05:28:26;12.98;;;7.18;;
80253;SDS011;69563;37.974;23.708;2023-06-01T05:30:56;12.35;;;7.28;;
80253;SDS011;69563;37.974;23.708;2023-06-01T05:33:22;10.60;;;6.72;;
80253;SDS011;69563;37.974;23.708;2023-06-01T05:35:47;14.07;;;6.95;;
80253;SDS011;69563;37.974;23.708;2023-06-01T05:38:20;10.27;;;6.18;;
80253;SDS011;69563;37.974;23.708;2023-06-01T05:40:46;11.43;;;6.90;;
80253;SDS011;69563;37.974;23.708;2023-06-01T05:43:12;8.95;;;5.88;;
80253;SDS011;69563;37.974;23.708;2023-06-01T05:45:37;10.88;;;6.10;;
80253;SDS011;69563;37.974;23.708;2023-06-01T05:48:03;11.10;;;6.75;;
80253;SDS011;69563;37.974;23.708;2023-06-01T05:50:29;11.00;;;5.40;;
80253;SDS011;69563;37.974;23.708;2023-06-01T05:52:55;7.68;;;5.10;;
80253;SDS011;69563;37.974;23.708;2023-06-01T05:55:20;9.48;;;5.50;;
80253;SDS011;69563;37.974;23.708;2023-06-01T05:57:46;8.32;;;5.20;;
80253;SDS011;69563;37.974;23.708;2023-06-01T06:00:12;6.78;;;5.32;;
80253;SDS011;69563;37.974;23.708;2023-06-01T06:02:41;8.55;;;5.40;;
80253;SDS011;69563;37.974;23.708;2023-06-01T06:05:09;8.93;;;5.55;;
80253;SDS011;69563;37.974;23.708;2023-06-01T06:07:36;7.13;;;5.60;;
80253;SDS011;69563;37.974;23.708;2023-06-01T06:10:02;6.60;;;5.47;;
80253;SDS011;69563;37.974;23.708;2023-06-01T06:12:29;8.85;;;5.15;;
80253;SDS011;69563;37.974;23.708;2023-06-01T06:14:54;9.43;;;5.60;;
80253;SDS011;69563;37.974;23.708;2023-06-01T06:17:21;6.28;;;4.82;;
80253;SDS011;69563;37.974;23.708;2023-06-01T06:19:57;7.43;;;5.07;;
80253;SDS011;69563;37.974;23.708;2023-06-01T06:22:56;9.73;;;5.28;;
80253;SDS011;69563;37.974;23.708;2023-06-01T06:25:23;8.95;;;4.90;;
80253;SDS011;69563;37.974;23.708;2023-06-01T06:27:48;8.45;;;4.75;;
80253;SDS011;69563;37.974;23.708;2023-06-01T06:30:15;9.18;;;4.97;;
80253;SDS011;69563;37.974;23.708;2023-06-01T06:32:43;8.43;;;4.80;;
80253;SDS011;69563;37.974;23.708;2023-06-01T06:35:14;8.32;;;4.72;;
80253;SDS011;69563;37.974;23.708;2023-06-01T06:37:40;8.80;;;5.07;;
80253;SDS011;69563;37.974;23.708;2023-06-01T06:40:06;9.32;;;4.88;;
80253;SDS011;69563;37.974;23.708;2023-06-01T06:42:33;8.07;;;4.88;;
80253;SDS011;69563;37.974;23.708;2023-06-01T06:44:58;9.52;;;4.90;;
80253;SDS011;69563;37.974;23.708;2023-06-01T06:47:24;8.68;;;5.40;;
80253;SDS011;69563;37.974;23.708;2023-06-01T06:49:50;6.40;;;4.93;;
80253;SDS011;69563;37.974;23.708;2023-06-01T06:52:17;6.97;;;4.57;;
80253;SDS011;69563;37.974;23.708;2023-06-01T06:54:42;8.00;;;5.10;;
80253;SDS011;69563;37.974;23.708;2023-06-01T06:57:08;9.18;;;5.20;;
80253;SDS011;69563;37.974;23.708;2023-06-01T06:59:35;7.28;;;4.78;;
80253;SDS011;69563;37.974;23.708;2023-06-01T07:02:01;8.68;;;5.10;;
80253;SDS011;69563;37.974;23.708;2023-06-01T07:04:30;10.98;;;4.97;;
80253;SDS011;69563;37.974;23.708;2023-06-01T07:06:56;9.57;;;4.93;;
80253;SDS011;69563;37.974;23.708;2023-06-01T07:09:22;13.55;;;5.32;;
80253;SDS011;69563;37.974;23.708;2023-06-01T07:11:48;15.25;;;5.43;;
80253;SDS011;69563;37.974;23.708;2023-06-01T07:14:14;8.18;;;5.20;;
80253;SDS011;69563;37.974;23.708;2023-06-01T07:16:40;15.07;;;5.07;;
80253;SDS011;69563;37.974;23.708;2023-06-01T07:19:06;14.10;;;5.22;;
80253;SDS011;69563;37.974;23.708;2023-06-01T07:21:33;9.30;;;5.63;;
80253;SDS011;69563;37.974;23.708;2023-06-01T07:23:58;11.35;;;5.40;;
80253;SDS011;69563;37.974;23.708;2023-06-01T07:26:24;8.98;;;5.03;;
80253;SDS011;69563;37.974;23.708;2023-06-01T07:28:51;9.45;;;5.00;;
80253;SDS011;69563;37.974;23.708;2023-06-01T07:31:19;9.48;;;5.50;;
80253;SDS011;69563;37.974;23.708;2023-06-01T07:33:45;8.45;;;5.05;;
80253;SDS011;69563;37.974;23.708;2023-06-01T07:36:14;9.32;;;5.32;;
80253;SDS011;69563;37.974;23.708;2023-06-01T07:38:42;8.10;;;5.15;;
80253;SDS011;69563;37.974;23.708;2023-06-01T07:41:09;10.18;;;5.25;;
80253;SDS011;69563;37.974;23.708;2023-06-01T07:43:36;8.52;;;4.95;;
80253;SDS011;69563;37.974;23.708;2023-06-01T07:46:03;9.90;;;5.18;;
80253;SDS011;69563;37.974;23.708;2023-06-01T07:48:29;7.65;;;5.07;;
80253;SDS011;69563;37.974;23.708;2023-06-01T07:53:30;10.30;;;5.45;;
80253;SDS011;69563;37.974;23.708;2023-06-01T07:55:56;8.90;;;4.72;;
80253;SDS011;69563;37.974;23.708;2023-06-01T07:58:22;10.43;;;5.30;;
80253;SDS011;69563;37.974;23.708;2023-06-01T08:00:48;9.98;;;5.35;;
80253;SDS011;69563;37.974;23.708;2023-06-01T08:03:14;7.45;;;4.68;;
80253;SDS011;69563;37.974;23.708;2023-06-01T08:05:40;13.30;;;5.10;;
80253;SDS011;69563;37.974;23.708;2023-06-01T08:08:09;11.73;;;4.78;;
80253;SDS011;69563;37.974;23.708;2023-06-01T08:10:35;8.43;;;5.00;;
80253;SDS011;69563;37.974;23.708;2023-06-01T08:13:04;11.75;;;4.50;;
80253;SDS011;69563;37.974;23.708;2023-06-01T08:15:32;6.68;;;4.63;;
80253;SDS011;69563;37.974;23.708;2023-06-01T08:17:59;8.02;;;4.28;;
80253;SDS011;69563;37.974;23.708;2023-06-01T08:20:25;9.30;;;4.63;;
80253;SDS011;69563;37.974;23.708;2023-06-01T08:22:52;7.55;;;4.20;;
80253;SDS011;69563;37.974;23.708;2023-06-01T08:25:18;7.15;;;3.90;;
80253;SDS011;69563;37.974;23.708;2023-06-01T08:27:44;8.60;;;3.72;;
80253;SDS011;69563;37.974;23.708;2023-06-01T08:30:15;6.95;;;3.97;;
80253;SDS011;69563;37.974;23.708;2023-06-01T08:32:41;6.88;;;3.88;;
80253;SDS011;69563;37.974;23.708;2023-06-01T08:35:07;10.88;;;3.30;;
80253;SDS011;69563;37.974;23.708;2023-06-01T08:37:35;5.45;;;3.20;;
80253;SDS011;69563;37.974;23.708;2023-06-01T08:40:06;8.50;;;3.90;;
80253;SDS011;69563;37.974;23.708;2023-06-01T08:45:11;7.07;;;3.50;;
80253;SDS011;69563;37.974;23.708;2023-06-01T08:47:40;6.72;;;3.33;;
80253;SDS011;69563;37.974;23.708;2023-06-01T08:50:10;6.38;;;3.42;;
80253;SDS011;69563;37.974;23.708;2023-06-01T08:52:36;5.53;;;3.30;;
80253;SDS011;69563;37.974;23.708;2023-06-01T08:55:03;5.97;;;3.50;;
80253;SDS011;69563;37.974;23.708;2023-06-01T08:57:30;8.98;;;3.00;;
80253;SDS011;69563;37.974;23.708;2023-06-01T08:59:56;5.85;;;3.40;;
80253;SDS011;69563;37.974;23.708;2023-06-01T09:02:24;6.72;;;3.10;;
80253;SDS011;69563;37.974;23.708;2023-06-01T09:04:50;6.13;;;3.05;;
80253;SDS011;69563;37.974;23.708;2023-06-01T09:07:17;8.13;;;2.70;;
80253;SDS011;69563;37.974;23.708;2023-06-01T09:09:43;5.57;;;2.90;;
80253;SDS011;69563;37.974;23.708;2023-06-01T09:17:31;9.07;;;2.90;;
80253;SDS011;69563;37.974;23.708;2023-06-01T09:19:58;6.90;;;3.08;;
80253;SDS011;69563;37.974;23.708;2023-06-01T09:22:24;8.20;;;3.00;;
80253;SDS011;69563;37.974;23.708;2023-06-01T09:25:12;5.82;;;3.08;;
80253;SDS011;69563;37.974;23.708;2023-06-01T09:27:43;5.80;;;3.00;;
80253;SDS011;69563;37.974;23.708;2023-06-01T09:30:09;10.25;;;3.22;;
80253;SDS011;69563;37.974;23.708;2023-06-01T09:32:35;6.88;;;3.40;;
80253;SDS011;69563;37.974;23.708;2023-06-01T09:35:01;5.65;;;3.10;;
80253;SDS011;69563;37.974;23.708;2023-06-01T09:37:26;7.60;;;3.28;;
80253;SDS011;69563;37.974;23.708;2023-06-01T09:39:55;8.15;;;3.30;;
80253;SDS011;69563;37.974;23.708;2023-06-01T09:42:31;5.57;;;3.17;;
80253;SDS011;69563;37.974;23.708;2023-06-01T09:45:13;5.00;;;3.15;;
80253;SDS011;69563;37.974;23.708;2023-06-01T09:47:41;5.85;;;3.38;;
80253;SDS011;69563;37.974;23.708;2023-06-01T09:50:06;6.28;;;3.30;;
80253;SDS011;69563;37.974;23.708;2023-06-01T09:52:32;5.93;;;3.20;;
80253;SDS011;69563;37.974;23.708;2023-06-01T09:55:04;9.00;;;3.53;;
80253;SDS011;69563;37.974;23.708;2023-06-01T09:57:34;6.70;;;3.90;;
80253;SDS011;69563;37.974;23.708;2023-06-01T10:00:00;6.20;;;3.40;;
80253;SDS011;69563;37.974;23.708;2023-06-01T10:02:30;7.60;;;3.90;;
80253;SDS011;69563;37.974;23.708;2023-06-01T10:04:58;6.90;;;3.70;;
80253;SDS011;69563;37.974;23.708;2023-06-01T10:07:26;6.90;;;3.90;;
80253;SDS011;69563;37.974;23.708;2023-06-01T10:09:54;8.45;;;4.13;;
80253;SDS011;69563;37.974;23.708;2023-06-01T10:12:22;8.93;;;4.13;;
80253;SDS011;69563;37.974;23.708;2023-06-01T10:14:52;8.90;;;4.00;;
80253;SDS011;69563;37.974;23.708;2023-06-01T10:17:18;9.65;;;3.70;;
80253;SDS011;69563;37.974;23.708;2023-06-01T10:19:45;5.97;;;3.70;;
80253;SDS011;69563;37.974;23.708;2023-06-01T10:22:11;9.73;;;3.55;;
80253;SDS011;69563;37.974;23.708;2023-06-01T10:24:39;8.60;;;3.72;;
80253;SDS011;69563;37.974;23.708;2023-06-01T10:29:46;8.07;;;3.85;;
80253;SDS011;69563;37.974;23.708;2023-06-01T10:35:08;9.73;;;3.53;;
80253;SDS011;69563;37.974;23.708;2023-06-01T10:40:43;7.20;;;3.50;;
80253;SDS011;69563;37.974;23.708;2023-06-01T10:43:39;6.47;;;3.72;;
80253;SDS011;69563;37.974;23.708;2023-06-01T10:49:00;8.88;;;3.95;;
80253;SDS011;69563;37.974;23.708;2023-06-01T10:51:27;5.40;;;3.45;;
80253;SDS011;69563;37.974;23.708;2023-06-01T10:53:53;6.68;;;3.70;;
80253;SDS011;69563;37.974;23.708;2023-06-01T10:56:23;8.82;;;3.35;;
80253;SDS011;69563;37.974;23.708;2023-06-01T11:01:36;15.95;;;5.25;;
80253;SDS011;69563;37.974;23.708;2023-06-01T11:04:34;12.25;;;4.57;;
80253;SDS011;69563;37.974;23.708;2023-06-01T11:07:26;8.38;;;4.15;;
80253;SDS011;69563;37.974;23.708;2023-06-01T11:10:03;10.75;;;3.88;;
80253;SDS011;69563;37.974;23.708;2023-06-01T11:13:00;8.48;;;3.63;;
80253;SDS011;69563;37.974;23.708;2023-06-01T11:15:36;9.85;;;3.40;;
80253;SDS011;69563;37.974;23.708;2023-06-01T11:21:18;9.05;;;3.47;;
80253;SDS011;69563;37.974;23.708;2023-06-01T11:23:49;6.70;;;2.88;;
80253;SDS011;69563;37.974;23.708;2023-06-01T11:26:23;7.10;;;3.73;;
80253;SDS011;69563;37.974;23.708;2023-06-01T11:29:02;6.47;;;3.50;;
80253;SDS011;69563;37.974;23.708;2023-06-01T11:31:33;6.60;;;3.05;;
80253;SDS011;69563;37.974;23.708;2023-06-01T11:34:04;6.95;;;3.40;;
80253;SDS011;69563;37.974;23.708;2023-06-01T11:36:30;7.00;;;3.35;;
80253;SDS011;69563;37.974;23.708;2023-06-01T11:39:01;6.57;;;3.38;;
80253;SDS011;69563;37.974;23.708;2023-06-01T11:41:28;7.10;;;3.28;;
80253;SDS011;69563;37.974;23.708;2023-06-01T11:43:54;11.23;;;3.58;;
80253;SDS011;69563;37.974;23.708;2023-06-01T11:46:23;6.10;;;3.28;;
80253;SDS011;69563;37.974;23.708;2023-06-01T11:51:28;7.45;;;3.15;;
80253;SDS011;69563;37.974;23.708;2023-06-01T11:53:55;5.75;;;3.25;;
80253;SDS011;69563;37.974;23.708;2023-06-01T11:56:26;6.45;;;3.53;;
80253;SDS011;69563;37.974;23.708;2023-06-01T11:58:56;8.13;;;3.10;;
80253;SDS011;69563;37.974;23.708;2023-06-01T12:01:24;5.53;;;3.00;;
80253;SDS011;69563;37.974;23.708;2023-06-01T12:03:50;6.75;;;2.92;;
80253;SDS011;69563;37.974;23.708;2023-06-01T12:06:19;7.38;;;3.45;;
80253;SDS011;69563;37.974;23.708;2023-06-01T12:08:50;4.97;;;2.90;;
80253;SDS011;69563;37.974;23.708;2023-06-01T12:11:24;5.93;;;3.15;;
80253;SDS011;69563;37.974;23.708;2023-06-01T12:13:54;7.97;;;2.72;;
80253;SDS011;69563;37.974;23.708;2023-06-01T12:16:21;7.35;;;2.63;;
80253;SDS011;69563;37.974;23.708;2023-06-01T12:18:50;5.93;;;2.75;;
80253;SDS011;69563;37.974;23.708;2023-06-01T12:21:16;9.00;;;3.20;;
80253;SDS011;69563;37.974;23.708;2023-06-01T12:23:43;5.63;;;2.90;;
80253;SDS011;69563;37.974;23.708;2023-06-01T12:26:16;9.10;;;3.38;;
80253;SDS011;69563;37.974;23.708;2023-06-01T12:31:17;8.70;;;3.38;;
80253;SDS011;69563;37.974;23.708;2023-06-01T12:33:43;6.93;;;3.17;;
80253;SDS011;69563;37.974;23.708;2023-06-01T12:36:10;6.57;;;3.00;;
80253;SDS011;69563;37.974;23.708;2023-06-01T12:38:53;11.48;;;3.30;;
80253;SDS011;69563;37.974;23.708;2023-06-01T12:41:19;6.80;;;3.10;;
80253;SDS011;69563;37.974;23.708;2023-06-01T12:43:46;6.57;;;2.92;;
80253;SDS011;69563;37.974;23.708;2023-06-01T12:46:21;7.53;;;3.10;;
80253;SDS011;69563;37.974;23.708;2023-06-01T12:51:36;7.30;;;3.10;;
80253;SDS011;69563;37.974;23.708;2023-06-01T12:54:02;7.35;;;2.92;;
80253;SDS011;69563;37.974;23.708;2023-06-01T12:56:28;6.55;;;3.22;;
80253;SDS011;69563;37.974;23.708;2023-06-01T12:58:54;6.85;;;3.28;;
80253;SDS011;69563;37.974;23.708;2023-06-01T13:01:20;7.43;;;3.17;;
80253;SDS011;69563;37.974;23.708;2023-06-01T13:03:46;6.70;;;3.22;;
80253;SDS011;69563;37.974;23.708;2023-06-01T13:06:12;6.07;;;3.00;;
80253;SDS011;69563;37.974;23.708;2023-06-01T13:08:41;7.18;;;3.25;;
80253;SDS011;69563;37.974;23.708;2023-06-01T13:11:08;5.82;;;3.28;;
80253;SDS011;69563;37.974;23.708;2023-06-01T13:13:34;5.45;;;3.33;;
80253;SDS011;69563;37.974;23.708;2023-06-01T13:16:00;7.22;;;3.55;;
80253;SDS011;69563;37.974;23.708;2023-06-01T13:18:26;5.47;;;3.20;;
80253;SDS011;69563;37.974;23.708;2023-06-01T13:20:52;6.82;;;3.40;;
80253;SDS011;69563;37.974;23.708;2023-06-01T13:23:18;7.47;;;3.25;;
80253;SDS011;69563;37.974;23.708;2023-06-01T13:25:43;7.97;;;3.28;;
80253;SDS011;69563;37.974;23.708;2023-06-01T13:28:09;7.40;;;2.92;;
80253;SDS011;69563;37.974;23.708;2023-06-01T13:30:36;6.35;;;3.15;;
80253;SDS011;69563;37.974;23.708;2023-06-01T13:33:04;4.85;;;2.92;;
80253;SDS011;69563;37.974;23.708;2023-06-01T13:35:31;7.82;;;3.15;;
80253;SDS011;69563;37.974;23.708;2023-06-01T13:37:57;7.13;;;2.95;;
80253;SDS011;69563;37.974;23.708;2023-06-01T13:40:23;7.10;;;3.20;;
80253;SDS011;69563;37.974;23.708;2023-06-01T13:42:52;7.03;;;3.20;;
80253;SDS011;69563;37.974;23.708;2023-06-01T13:45:21;8.40;;;3.13;;
80253;SDS011;69563;37.974;23.708;2023-06-01T13:47:47;9.23;;;3.13;;
80253;SDS011;69563;37.974;23.708;2023-06-01T13:50:15;6.55;;;3.30;;
80253;SDS011;69563;37.974;23.708;2023-06-01T13:52:41;6.10;;;2.95;;
80253;SDS011;69563;37.974;23.708;2023-06-01T13:55:07;5.72;;;3.10;;
80253;SDS011;69563;37.974;23.708;2023-06-01T13:57:34;6.50;;;3.15;;
80253;SDS011;69563;37.974;23.708;2023-06-01T14:00:00;7.28;;;2.95;;
80253;SDS011;69563;37.974;23.708;2023-06-01T14:02:26;6.68;;;3.00;;
80253;SDS011;69563;37.974;23.708;2023-06-01T14:04:52;6.95;;;3.03;;
80253;SDS011;69563;37.974;23.708;2023-06-01T14:07:18;5.40;;;3.10;;
80253;SDS011;69563;37.974;23.708;2023-06-01T14:09:44;5.30;;;3.15;;
80253;SDS011;69563;37.974;23.708;2023-06-01T14:12:09;6.70;;;3.10;;
80253;SDS011;69563;37.974;23.708;2023-06-01T14:14:36;7.15;;;2.83;;
80253;SDS011;69563;37.974;23.708;2023-06-01T14:17:02;7.22;;;3.28;;
80253;SDS011;69563;37.974;23.708;2023-06-01T14:19:28;6.55;;;3.33;;
80253;SDS011;69563;37.974;23.708;2023-06-01T14:21:54;6.47;;;3.33;;
80253;SDS011;69563;37.974;23.708;2023-06-01T14:24:19;9.10;;;3.28;;
80253;SDS011;69563;37.974;23.708;2023-06-01T14:26:45;6.20;;;3.15;;
80253;SDS011;69563;37.974;23.708;2023-06-01T14:29:11;5.30;;;3.33;;
80253;SDS011;69563;37.974;23.708;2023-06-01T14:31:37;5.78;;;3.50;;
80253;SDS011;69563;37.974;23.708;2023-06-01T14:34:03;7.28;;;3.10;;
80253;SDS011;69563;37.974;23.708;2023-06-01T14:36:29;6.32;;;3.15;;
80253;SDS011;69563;37.974;23.708;2023-06-01T14:38:55;6.43;;;3.10;;
80253;SDS011;69563;37.974;23.708;2023-06-01T14:41:21;5.72;;;3.03;;
80253;SDS011;69563;37.974;23.708;2023-06-01T14:43:46;6.38;;;2.97;;
80253;SDS011;69563;37.974;23.708;2023-06-01T14:46:12;5.95;;;2.90;;
80253;SDS011;69563;37.974;23.708;2023-06-01T14:48:38;5.70;;;2.88;;
80253;SDS011;69563;37.974;23.708;2023-06-01T14:51:03;6.22;;;3.40;;
80253;SDS011;69563;37.974;23.708;2023-06-01T14:53:29;7.25;;;2.95;;
80253;SDS011;69563;37.974;23.708;2023-06-01T14:55:55;6.88;;;3.28;;
80253;SDS011;69563;37.974;23.708;2023-06-01T14:58:21;6.22;;;3.10;;
80253;SDS011;69563;37.974;23.708;2023-06-01T15:00:46;7.10;;;3.17;;
80253;SDS011;69563;37.974;23.708;2023-06-01T15:03:12;5.03;;;3.13;;
80253;SDS011;69563;37.974;23.708;2023-06-01T15:05:38;7.65;;;3.30;;
80253;SDS011;69563;37.974;23.708;2023-06-01T15:08:07;10.13;;;3.13;;
80253;SDS011;69563;37.974;23.708;2023-06-01T15:10:33;7.53;;;3.17;;
80253;SDS011;69563;37.974;23.708;2023-06-01T15:12:58;6.60;;;3.30;;
80253;SDS011;69563;37.974;23.708;2023-06-01T15:15:24;6.18;;;2.80;;